createdAt,value
2023-05-23T00:00:59.778Z,15.67
2023-05-23T00:03:27.610Z,15.70
2023-05-23T00:05:56.679Z,15.67
2023-05-23T00:08:23.630Z,15.68
2023-05-23T00:10:50.476Z,15.69
2023-05-23T00:13:17.720Z,15.71
2023-05-23T00:15:45.256Z,15.73
2023-05-23T00:18:12.333Z,15.75
2023-05-23T00:20:43.792Z,15.80
2023-05-23T00:23:12.355Z,15.83
2023-05-23T00:25:41.250Z,15.80
2023-05-23T00:28:08.300Z,15.80
2023-05-23T00:30:35.004Z,15.74
2023-05-23T00:33:02.206Z,15.73
2023-05-23T00:35:28.928Z,15.71
2023-05-23T00:37:56.368Z,15.62
2023-05-23T00:40:23.768Z,15.56
2023-05-23T00:42:50.713Z,15.40
2023-05-23T00:45:17.970Z,15.31
2023-05-23T00:47:47.188Z,15.36
2023-05-23T00:50:15.845Z,15.39
2023-05-23T00:52:48.158Z,15.42
2023-05-23T00:55:15.137Z,15.33
2023-05-23T00:57:44.458Z,15.29
2023-05-23T01:00:13.481Z,15.30
2023-05-23T01:02:47.364Z,15.34
2023-05-23T01:05:17.794Z,15.27
2023-05-23T01:07:46.810Z,15.23
2023-05-23T01:10:15.148Z,15.14
2023-05-23T01:13:13.404Z,15.18
2023-05-23T01:15:46.361Z,15.17
2023-05-23T01:18:24.734Z,15.14
2023-05-23T01:20:59.771Z,15.12
2023-05-23T01:23:59.268Z,15.11
2023-05-23T01:26:32.623Z,15.07
2023-05-23T01:29:24.107Z,15.01
2023-05-23T01:31:54.660Z,15.00
2023-05-23T01:34:21.769Z,14.98
2023-05-23T01:36:53.733Z,14.98
2023-05-23T01:39:20.406Z,15.01
2023-05-23T01:41:48.682Z,15.00
2023-05-23T01:44:15.974Z,14.98
2023-05-23T01:46:44.536Z,15.02
2023-05-23T01:49:13.845Z,15.02
2023-05-23T01:51:41.393Z,15.05
2023-05-23T01:54:08.530Z,15.01
2023-05-23T01:56:35.659Z,15.00
2023-05-23T01:59:03.722Z,14.97
2023-05-23T02:01:31.465Z,14.95
2023-05-23T02:03:58.518Z,14.87
2023-05-23T02:06:25.282Z,14.85
2023-05-23T02:08:52.096Z,14.86
2023-05-23T02:11:18.771Z,14.88
2023-05-23T02:13:45.508Z,14.82
2023-05-23T02:16:14.034Z,14.84
2023-05-23T02:18:40.988Z,14.86
2023-05-23T02:21:08.335Z,14.82
2023-05-23T02:23:37.476Z,14.73
2023-05-23T02:26:04.194Z,14.73
2023-05-23T02:28:30.929Z,14.70
2023-05-23T02:30:57.851Z,14.74
2023-05-23T02:33:24.982Z,14.77
2023-05-23T02:35:52.667Z,14.75
2023-05-23T02:38:20.816Z,14.69
2023-05-23T02:40:47.573Z,14.73
2023-05-23T02:43:14.344Z,14.72
2023-05-23T02:45:41.483Z,14.74
2023-05-23T02:48:08.745Z,14.74
2023-05-23T02:50:35.677Z,14.78
2023-05-23T02:53:02.369Z,14.78
2023-05-23T02:55:29.110Z,14.72
2023-05-23T02:57:56.886Z,14.72
2023-05-23T03:00:24.017Z,14.73
2023-05-23T03:02:54.695Z,14.78
2023-05-23T03:05:21.690Z,14.79
2023-05-23T03:07:48.477Z,14.78
2023-05-23T03:10:15.805Z,14.84
2023-05-23T03:12:42.686Z,14.86
2023-05-23T03:15:10.669Z,14.84
2023-05-23T03:17:40.600Z,14.86
2023-05-23T03:20:10.049Z,14.88
2023-05-23T03:22:38.888Z,14.94
2023-05-23T03:25:06.608Z,15.00
2023-05-23T03:27:33.562Z,14.98
2023-05-23T03:30:00.423Z,15.05
2023-05-23T03:32:27.921Z,15.04
2023-05-23T03:34:54.806Z,15.04
2023-05-23T03:37:21.683Z,14.99
2023-05-23T03:39:48.601Z,14.98
2023-05-23T03:42:15.597Z,15.07
2023-05-23T03:44:42.474Z,14.99
2023-05-23T03:47:09.972Z,15.00
2023-05-23T03:49:39.695Z,14.90
2023-05-23T03:52:06.826Z,14.85
2023-05-23T03:54:34.503Z,14.83
2023-05-23T03:57:01.953Z,14.84
2023-05-23T03:59:30.104Z,14.88
2023-05-23T04:01:59.134Z,14.85
2023-05-23T04:04:26.525Z,14.92
2023-05-23T04:06:53.837Z,14.92
2023-05-23T04:09:21.189Z,14.98
2023-05-23T04:11:49.882Z,14.97
2023-05-23T04:14:20.354Z,14.96
2023-05-23T04:16:48.384Z,14.91
2023-05-23T04:19:16.560Z,14.94
2023-05-23T04:21:43.344Z,14.89
2023-05-23T04:24:13.728Z,14.88
2023-05-23T04:26:40.587Z,14.90
2023-05-23T04:29:07.440Z,14.90
2023-05-23T04:31:34.479Z,14.86
2023-05-23T04:34:02.709Z,14.93
2023-05-23T04:36:32.373Z,15.00
2023-05-23T04:38:59.077Z,15.02
2023-05-23T04:41:26.835Z,15.01
2023-05-23T04:43:54.796Z,15.11
2023-05-23T04:46:27.112Z,15.06
2023-05-23T04:49:23.606Z,15.08
2023-05-23T04:51:51.272Z,15.08
2023-05-23T04:54:25.020Z,15.15
2023-05-23T04:56:53.381Z,15.13
2023-05-23T04:59:21.308Z,15.23
2023-05-23T05:01:48.003Z,15.30
2023-05-23T05:04:15.606Z,15.39
2023-05-23T05:06:42.705Z,15.43
2023-05-23T05:09:09.876Z,15.50
2023-05-23T05:11:36.818Z,15.54
2023-05-23T05:14:03.466Z,15.60
2023-05-23T05:16:30.846Z,15.60
2023-05-23T05:18:57.834Z,15.55
2023-05-23T05:21:24.569Z,15.47
2023-05-23T05:23:51.633Z,15.50
2023-05-23T05:26:19.021Z,15.44
2023-05-23T05:28:45.743Z,15.36
2023-05-23T05:31:15.492Z,15.25
2023-05-23T05:33:46.102Z,15.18
2023-05-23T05:36:14.945Z,15.19
2023-05-23T05:38:42.048Z,15.24
2023-05-23T05:41:09.447Z,15.22
2023-05-23T05:43:40.456Z,15.18
2023-05-23T05:46:07.156Z,15.25
2023-05-23T05:48:34.233Z,15.21
2023-05-23T05:51:05.911Z,15.23
2023-05-23T05:53:34.040Z,15.22
2023-05-23T05:56:02.822Z,15.20
2023-05-23T05:58:31.055Z,15.24
2023-05-23T06:01:01.156Z,15.35
2023-05-23T06:03:28.089Z,15.37
2023-05-23T06:05:55.768Z,15.48
2023-05-23T06:08:22.524Z,15.53
2023-05-23T06:10:49.444Z,15.60
2023-05-23T06:13:16.687Z,15.70
2023-05-23T06:15:46.886Z,15.83
2023-05-23T06:18:14.270Z,15.93
2023-05-23T06:20:41.342Z,15.97
2023-05-23T06:23:12.870Z,16.00
2023-05-23T06:25:40.210Z,15.99
2023-05-23T06:28:06.913Z,15.92
2023-05-23T06:30:37.040Z,15.93
2023-05-23T06:33:05.088Z,15.94
2023-05-23T06:35:31.822Z,15.88
2023-05-23T06:38:00.963Z,15.86
2023-05-23T06:40:27.702Z,15.86
2023-05-23T06:42:54.484Z,15.84
2023-05-23T06:45:47.621Z,15.89
2023-05-23T06:48:14.536Z,15.90
2023-05-23T06:50:42.025Z,15.90
2023-05-23T06:53:10.817Z,15.88
2023-05-23T06:55:37.542Z,15.84
2023-05-23T06:58:06.417Z,15.72
2023-05-23T07:00:34.642Z,15.69
2023-05-23T07:03:16.746Z,15.66
2023-05-23T07:05:44.176Z,15.77
2023-05-23T07:08:11.951Z,15.87
2023-05-23T07:10:42.019Z,16.02
2023-05-23T07:13:22.904Z,16.21
2023-05-23T07:15:49.613Z,16.33
2023-05-23T07:18:16.611Z,16.37
2023-05-23T07:20:43.542Z,16.44
2023-05-23T07:23:14.476Z,16.36
2023-05-23T07:25:53.759Z,16.35
2023-05-23T07:28:31.280Z,16.25
2023-05-23T07:30:59.028Z,16.16
2023-05-23T07:33:26.033Z,16.13
2023-05-23T07:35:57.976Z,16.09
2023-05-23T07:38:26.854Z,16.19
2023-05-23T07:41:06.638Z,16.16
2023-05-23T07:43:38.113Z,16.03
2023-05-23T07:46:05.095Z,15.85
2023-05-23T07:48:32.394Z,15.77
2023-05-23T07:50:59.527Z,15.74
2023-05-23T07:53:26.846Z,15.82
2023-05-23T07:55:53.899Z,15.91
2023-05-23T07:58:23.279Z,16.14
2023-05-23T08:00:52.739Z,16.28
2023-05-23T08:03:45.872Z,16.50
2023-05-23T08:06:19.599Z,16.60
2023-05-23T08:08:46.491Z,16.72
2023-05-23T08:11:15.033Z,16.76
2023-05-23T08:13:46.617Z,16.72
2023-05-23T08:16:37.695Z,16.75
2023-05-23T08:19:09.032Z,16.71
2023-05-23T08:21:36.568Z,16.72
2023-05-23T08:24:03.614Z,16.66
2023-05-23T08:26:34.944Z,16.68
2023-05-23T08:29:04.005Z,16.69
2023-05-23T08:31:32.318Z,16.68
2023-05-23T08:34:00.197Z,16.68
2023-05-23T08:36:28.727Z,16.79
2023-05-23T08:38:56.510Z,17.02
2023-05-23T08:41:30.729Z,17.33
2023-05-23T08:44:04.497Z,17.81
2023-05-23T08:46:47.156Z,18.43
2023-05-23T08:49:23.817Z,19.18
2023-05-23T08:51:52.817Z,19.88
2023-05-23T08:54:22.426Z,20.16
2023-05-23T08:56:49.433Z,20.49
2023-05-23T08:59:16.628Z,20.40
2023-05-23T09:01:46.217Z,19.94
2023-05-23T09:04:15.248Z,19.65
2023-05-23T09:06:57.194Z,19.43
2023-05-23T09:09:25.316Z,19.15
2023-05-23T09:11:52.738Z,18.89
2023-05-23T09:14:19.511Z,18.69
2023-05-23T09:16:49.239Z,18.66
2023-05-23T09:19:19.252Z,18.58
2023-05-23T09:21:54.423Z,18.37
2023-05-23T09:24:34.808Z,18.27
2023-05-23T09:27:03.132Z,18.15
2023-05-23T09:29:30.837Z,18.03
2023-05-23T09:32:11.099Z,18.10
2023-05-23T09:34:59.745Z,18.42
2023-05-23T09:37:32.720Z,18.96
2023-05-23T09:40:10.641Z,19.30
2023-05-23T09:42:46.726Z,19.47
2023-05-23T09:45:14.789Z,19.43
2023-05-23T09:47:52.258Z,19.07
2023-05-23T09:50:20.944Z,18.80
2023-05-23T09:52:48.253Z,18.46
2023-05-23T09:55:15.594Z,18.14
2023-05-23T09:57:44.341Z,17.77
2023-05-23T10:00:13.761Z,17.46
2023-05-23T10:02:54.160Z,17.21
2023-05-23T10:05:31.113Z,17.06
2023-05-23T10:08:05.287Z,17.09
2023-05-23T10:10:35.316Z,17.29
2023-05-23T10:13:06.211Z,17.64
2023-05-23T10:15:39.434Z,18.49
2023-05-23T10:18:11.433Z,19.01
2023-05-23T10:20:40.489Z,19.28
2023-05-23T10:23:07.588Z,19.30
2023-05-23T10:25:37.292Z,19.26
2023-05-23T10:28:05.103Z,19.20
2023-05-23T10:30:32.271Z,19.18
2023-05-23T10:32:59.603Z,19.14
2023-05-23T10:35:47.936Z,18.98
2023-05-23T10:38:33.195Z,18.53
2023-05-23T10:41:07.681Z,18.22
2023-05-23T10:43:46.952Z,18.17
2023-05-23T10:46:14.877Z,18.14
2023-05-23T10:48:43.239Z,18.28
2023-05-23T10:51:14.780Z,18.32
2023-05-23T10:53:43.799Z,18.40
2023-05-23T10:56:23.518Z,18.45
2023-05-23T10:58:58.028Z,18.90
2023-05-23T11:01:25.352Z,19.66
2023-05-23T11:03:55.658Z,19.79
2023-05-23T11:06:45.169Z,19.95
2023-05-23T11:09:19.302Z,20.09
2023-05-23T11:11:49.117Z,20.42
2023-05-23T11:14:16.001Z,21.03
2023-05-23T11:16:46.663Z,21.47
2023-05-23T11:19:19.977Z,21.51
2023-05-23T11:21:50.225Z,21.49
2023-05-23T11:24:17.734Z,21.67
2023-05-23T11:27:04.316Z,21.78
2023-05-23T11:29:31.478Z,21.58
2023-05-23T11:31:58.628Z,21.24
2023-05-23T11:34:26.421Z,21.32
2023-05-23T11:36:54.866Z,21.37
2023-05-23T11:39:21.880Z,21.36
2023-05-23T11:42:02.393Z,21.87
2023-05-23T11:44:30.656Z,21.66
2023-05-23T11:47:04.690Z,21.24
2023-05-23T11:49:32.556Z,20.80
2023-05-23T11:52:00.318Z,20.33
2023-05-23T11:54:27.538Z,19.99
2023-05-23T11:56:55.688Z,19.80
2023-05-23T11:59:26.565Z,19.64
2023-05-23T12:01:54.117Z,19.57
2023-05-23T12:04:21.030Z,19.72
2023-05-23T12:06:49.403Z,19.92
2023-05-23T12:09:17.073Z,20.24
2023-05-23T12:11:45.439Z,20.39
2023-05-23T12:14:17.063Z,20.20
2023-05-23T12:16:48.408Z,20.06
2023-05-23T12:19:17.919Z,20.05
2023-05-23T12:21:46.761Z,20.21
2023-05-23T12:24:21.342Z,20.20
2023-05-23T12:27:02.712Z,20.26
2023-05-23T12:29:33.771Z,20.24
2023-05-23T12:32:03.009Z,21.02
2023-05-23T12:34:29.811Z,21.68
2023-05-23T12:39:36.432Z,22.19
2023-05-23T12:42:10.456Z,21.68
2023-05-23T12:44:37.390Z,20.97
2023-05-23T12:47:04.462Z,21.10
2023-05-23T12:49:31.407Z,21.36
2023-05-23T12:51:58.153Z,21.43
2023-05-23T12:54:24.913Z,20.84
2023-05-23T12:56:51.604Z,20.87
2023-05-23T12:59:18.356Z,21.08
2023-05-23T13:01:45.101Z,20.40
2023-05-23T13:04:11.924Z,20.53
2023-05-23T13:06:38.606Z,20.91
2023-05-23T13:09:05.615Z,21.41
2023-05-23T13:11:32.447Z,21.77
2023-05-23T13:13:59.130Z,21.97
2023-05-23T13:16:26.064Z,21.93
2023-05-23T13:18:53.321Z,22.14
2023-05-23T13:21:20.113Z,22.21
2023-05-23T13:23:46.835Z,21.91
2023-05-23T13:26:14.682Z,21.81
2023-05-23T13:28:41.516Z,21.66
2023-05-23T13:31:08.308Z,21.60
2023-05-23T13:33:35.096Z,21.86
2023-05-23T13:36:01.858Z,21.82
2023-05-23T13:38:30.884Z,21.83
2023-05-23T13:40:57.654Z,22.00
2023-05-23T13:43:24.470Z,21.66
2023-05-23T13:45:51.252Z,21.11
2023-05-23T13:48:17.896Z,20.47
2023-05-23T13:50:45.315Z,20.26
2023-05-23T13:53:16.677Z,20.30
2023-05-23T13:55:45.371Z,20.02
2023-05-23T13:58:12.839Z,19.82
2023-05-23T14:00:40.504Z,19.82
2023-05-23T14:03:08.693Z,19.82
2023-05-23T14:05:36.545Z,19.90
2023-05-23T14:08:04.595Z,20.00
2023-05-23T14:10:33.410Z,19.92
2023-05-23T14:13:00.228Z,19.97
2023-05-23T14:15:27.826Z,20.07
2023-05-23T14:17:55.985Z,20.12
2023-05-23T14:20:23.438Z,20.23
2023-05-23T14:22:51.283Z,20.52
2023-05-23T14:25:18.766Z,20.98
2023-05-23T14:27:46.755Z,20.74
2023-05-23T14:30:13.661Z,20.72
2023-05-23T14:32:41.177Z,20.87
2023-05-23T14:35:10.731Z,20.67
2023-05-23T14:37:37.839Z,20.27
2023-05-23T14:40:05.917Z,20.16
2023-05-23T14:42:32.987Z,20.28
2023-05-23T14:44:59.675Z,20.56
2023-05-23T14:47:26.638Z,20.38
2023-05-23T14:49:53.377Z,19.86
2023-05-23T14:52:20.199Z,19.67
2023-05-23T14:54:46.904Z,19.46
2023-05-23T14:57:13.609Z,19.58
2023-05-23T14:59:40.507Z,19.75
2023-05-23T15:02:08.268Z,19.79
2023-05-23T15:04:36.018Z,19.47
2023-05-23T15:07:02.825Z,19.54
2023-05-23T15:09:29.562Z,19.64
2023-05-23T15:11:56.350Z,19.89
2023-05-23T15:14:23.365Z,19.90
2023-05-23T15:16:50.498Z,20.04
2023-05-23T15:19:17.431Z,19.79
2023-05-23T15:21:50.512Z,19.74
2023-05-23T15:24:18.457Z,19.47
2023-05-23T15:26:45.254Z,19.30
2023-05-23T15:29:13.296Z,19.35
2023-05-23T15:31:40.118Z,19.18
2023-05-23T15:34:06.898Z,18.91
2023-05-23T15:36:33.575Z,18.99
2023-05-23T15:39:00.388Z,18.93
2023-05-23T15:41:27.980Z,18.97
2023-05-23T15:43:54.711Z,18.94
2023-05-23T15:46:21.536Z,19.06
2023-05-23T15:48:48.358Z,19.12
2023-05-23T15:51:15.182Z,19.27
2023-05-23T15:53:58.911Z,19.31
2023-05-23T15:56:26.402Z,19.55
2023-05-23T15:58:53.082Z,19.73
2023-05-23T16:01:19.815Z,19.63
2023-05-23T16:03:46.900Z,19.27
2023-05-23T16:06:13.717Z,19.03
2023-05-23T16:08:40.477Z,19.02
2023-05-23T16:11:07.202Z,18.82
2023-05-23T16:13:33.898Z,18.74
2023-05-23T16:16:00.634Z,18.82
2023-05-23T16:18:27.463Z,18.92
2023-05-23T16:20:54.304Z,18.97
2023-05-23T16:23:21.133Z,19.07
2023-05-23T16:25:48.434Z,19.20
2023-05-23T16:28:18.050Z,19.17
2023-05-23T16:30:44.727Z,19.00
2023-05-23T16:33:11.922Z,18.99
2023-05-23T16:35:38.840Z,18.83
2023-05-23T16:38:05.842Z,18.87
2023-05-23T16:40:32.537Z,18.73
2023-05-23T16:42:59.356Z,18.66
2023-05-23T16:45:26.032Z,18.63
2023-05-23T16:47:52.799Z,18.39
2023-05-23T16:50:19.485Z,18.29
2023-05-23T16:52:46.330Z,18.05
2023-05-23T16:55:13.011Z,18.02
2023-05-23T16:57:40.056Z,17.93
2023-05-23T17:00:07.794Z,18.03
2023-05-23T17:02:34.735Z,18.08
2023-05-23T17:05:01.553Z,18.19
2023-05-23T17:07:28.240Z,18.28
2023-05-23T17:09:54.942Z,18.32
2023-05-23T17:12:21.871Z,18.38
2023-05-23T17:14:49.124Z,18.16
2023-05-23T17:17:16.081Z,18.01
2023-05-23T17:19:42.843Z,17.91
2023-05-23T17:22:09.670Z,17.98
2023-05-23T17:24:36.983Z,18.03
2023-05-23T17:27:04.227Z,17.89
2023-05-23T17:29:31.785Z,17.79
2023-05-23T17:31:58.603Z,17.69
2023-05-23T17:34:25.616Z,17.71
2023-05-23T17:36:52.829Z,17.58
2023-05-23T17:39:19.847Z,17.48
2023-05-23T17:41:46.729Z,17.33
2023-05-23T17:44:13.432Z,17.27
2023-05-23T17:46:40.146Z,17.23
2023-05-23T17:49:07.267Z,17.08
2023-05-23T17:51:33.986Z,16.97
2023-05-23T17:54:00.851Z,16.99
2023-05-23T17:56:27.517Z,16.87
2023-05-23T17:58:54.260Z,16.84
2023-05-23T18:01:21.106Z,16.77
2023-05-23T18:03:49.102Z,16.72
2023-05-23T18:06:15.932Z,16.62
2023-05-23T18:08:42.630Z,16.61
2023-05-23T18:11:09.731Z,16.58
2023-05-23T18:13:36.416Z,16.65
2023-05-23T18:16:03.132Z,16.53
2023-05-23T18:18:29.889Z,16.65
2023-05-23T18:20:56.754Z,16.63
2023-05-23T18:23:23.413Z,16.50
2023-05-23T18:25:50.202Z,16.41
2023-05-23T18:28:16.865Z,16.43
2023-05-23T18:30:43.657Z,16.52
2023-05-23T18:33:10.724Z,16.50
2023-05-23T18:35:37.612Z,16.45
2023-05-23T18:38:04.399Z,16.40
2023-05-23T18:40:31.372Z,16.36
2023-05-23T18:42:58.054Z,16.24
2023-05-23T18:45:24.782Z,16.27
2023-05-23T18:47:51.522Z,16.25
2023-05-23T18:50:18.717Z,16.14
2023-05-23T18:52:45.545Z,16.06
2023-05-23T18:55:12.368Z,16.05
2023-05-23T18:57:39.200Z,15.86
2023-05-23T19:00:07.470Z,15.78
2023-05-23T19:02:34.396Z,15.69
2023-05-23T19:05:02.226Z,15.66
2023-05-23T19:07:28.944Z,15.56
2023-05-23T19:09:55.655Z,15.60
2023-05-23T19:12:22.523Z,15.50
2023-05-23T19:14:49.195Z,15.38
2023-05-23T19:17:16.706Z,15.36
2023-05-23T19:19:43.474Z,15.23
2023-05-23T19:22:10.881Z,15.24
2023-05-23T19:24:37.760Z,15.24
2023-05-23T19:27:04.991Z,15.21
2023-05-23T19:29:31.754Z,15.03
2023-05-23T19:31:58.736Z,15.01
2023-05-23T19:34:25.560Z,15.02
2023-05-23T19:36:52.361Z,14.88
2023-05-23T19:39:19.219Z,14.88
2023-05-23T19:41:46.065Z,14.68
2023-05-23T19:44:13.273Z,14.62
2023-05-23T19:46:40.073Z,14.68
2023-05-23T19:49:08.424Z,14.62
2023-05-23T19:51:36.649Z,14.57
2023-05-23T19:54:03.840Z,14.60
2023-05-23T19:56:30.687Z,14.55
2023-05-23T19:58:57.388Z,14.59
2023-05-23T20:01:24.098Z,14.52
2023-05-23T20:03:50.891Z,14.50
2023-05-23T20:06:17.554Z,14.51
2023-05-23T20:08:44.288Z,14.48
2023-05-23T20:11:12.575Z,14.49
2023-05-23T20:13:39.360Z,14.59
2023-05-23T20:16:07.975Z,14.53
2023-05-23T20:18:34.690Z,14.52
2023-05-23T20:21:03.559Z,14.55
2023-05-23T20:23:31.644Z,14.48
2023-05-23T20:25:58.357Z,14.42
2023-05-23T20:28:25.117Z,14.43
2023-05-23T20:30:52.003Z,14.36
2023-05-23T20:33:19.415Z,14.27
2023-05-23T20:35:48.429Z,14.26
2023-05-23T20:38:15.426Z,14.11
2023-05-23T20:40:42.226Z,14.05
2023-05-23T20:43:10.347Z,14.06
2023-05-23T20:45:37.205Z,14.11
2023-05-23T20:48:03.949Z,14.04
2023-05-23T20:50:32.438Z,13.96
2023-05-23T20:53:02.013Z,14.04
2023-05-23T20:55:29.378Z,14.04
2023-05-23T20:57:56.172Z,14.06
2023-05-23T21:00:22.884Z,14.01
2023-05-23T21:02:49.758Z,14.07
2023-05-23T21:05:16.629Z,14.01
2023-05-23T21:07:43.388Z,13.99
2023-05-23T21:10:10.499Z,13.93
2023-05-23T21:12:37.214Z,13.95
2023-05-23T21:15:04.251Z,13.87
2023-05-23T21:17:30.936Z,13.82
2023-05-23T21:19:57.679Z,13.75
2023-05-23T21:22:24.412Z,13.72
2023-05-23T21:24:51.169Z,13.79
2023-05-23T21:27:17.916Z,13.69
2023-05-23T21:29:46.863Z,13.65
2023-05-23T21:32:13.825Z,13.64
2023-05-23T21:34:40.580Z,13.55
2023-05-23T21:37:07.476Z,13.57
2023-05-23T21:39:47.106Z,13.61
2023-05-23T21:42:17.938Z,13.53
2023-05-23T21:44:44.684Z,13.41
2023-05-23T21:47:11.390Z,13.37
2023-05-23T21:49:38.487Z,13.44
2023-05-23T21:52:05.292Z,13.42
2023-05-23T21:54:32.235Z,13.39
2023-05-23T21:56:58.957Z,13.32
2023-05-23T21:59:25.692Z,13.26
2023-05-23T22:01:52.431Z,13.26
2023-05-23T22:04:20.256Z,13.25
2023-05-23T22:06:47.284Z,13.07
2023-05-23T22:09:15.375Z,12.97
2023-05-23T22:11:42.558Z,12.92
2023-05-23T22:14:09.911Z,12.95
2023-05-23T22:16:39.694Z,12.88
2023-05-23T22:19:07.240Z,12.90
2023-05-23T22:21:34.027Z,12.88
2023-05-23T22:24:00.826Z,12.83
2023-05-23T22:26:28.158Z,12.85
2023-05-23T22:28:55.770Z,12.82
2023-05-23T22:31:24.178Z,12.74
2023-05-23T22:33:51.414Z,12.76
2023-05-23T22:36:18.465Z,12.80
2023-05-23T22:38:45.777Z,12.74
2023-05-23T22:41:12.537Z,12.72
2023-05-23T22:43:39.402Z,12.64
2023-05-23T22:46:07.001Z,12.63
2023-05-23T22:48:34.292Z,12.59
2023-05-23T22:51:02.667Z,12.61
2023-05-23T22:53:30.347Z,12.64
2023-05-23T22:55:57.597Z,12.64
2023-05-23T22:58:24.339Z,12.64
2023-05-23T23:00:51.380Z,12.70
2023-05-23T23:03:18.432Z,12.73
2023-05-23T23:05:45.482Z,12.61
2023-05-23T23:08:12.376Z,12.56
2023-05-23T23:10:40.324Z,12.58
2023-05-23T23:13:07.381Z,12.51
2023-05-23T23:15:34.215Z,12.44
2023-05-23T23:18:01.365Z,12.42
2023-05-23T23:20:28.519Z,12.41
2023-05-23T23:22:55.276Z,12.31
2023-05-23T23:25:22.113Z,12.35
2023-05-23T23:27:48.926Z,12.38
2023-05-23T23:30:15.752Z,12.34
2023-05-23T23:32:42.473Z,12.34
2023-05-23T23:35:09.573Z,12.28
2023-05-23T23:37:36.332Z,12.21
2023-05-23T23:40:03.204Z,12.12
2023-05-23T23:42:29.973Z,11.99
2023-05-23T23:44:56.665Z,11.92
2023-05-23T23:47:23.373Z,11.94
2023-05-23T23:49:50.500Z,11.92
2023-05-23T23:52:17.675Z,11.90
2023-05-23T23:54:44.603Z,11.80
2023-05-23T23:57:13.902Z,11.72
2023-05-23T23:59:43.848Z,11.70
